sensor_id;sensor_type;location;lat;lon;timestamp;pressure;altitude;pressure_sealevel;temperature;humidity
68489;BME280;55481;48.764;8.936;2024-01-25T00:01:17;98130;;;9.2;76.5
68489;BME280;55481;48.764;8.936;2024-01-25T00:04:15;98130;;;9.2;76.5
68489;BME280;55481;48.764;8.936;2024-01-25T00:06:45;98130;;;9.2;76.5
68489;BME280;55481;48.764;8.936;2024-01-25T00:11:39;98120;;;9.2;76.5
68489;BME280;55481;48.764;8.936;2024-01-25T00:14:02;98110;;;9.2;76.5
68489;BME280;55481;48.764;8.936;2024-01-25T00:16:27;98110;;;9.3;76
68489;BME280;55481;48.764;8.936;2024-01-25T00:18:58;98110;;;9.3;76
68489;BME280;55481;48.764;8.936;2024-01-25T00:21:29;98100;;;9.3;76
68489;BME280;55481;48.764;8.936;2024-01-25T00:24:00;98110;;;9.2;76.5
68489;BME280;55481;48.764;8.936;2024-01-25T00:26:32;98110;;;9.2;76.5
68489;BME280;55481;48.764;8.936;2024-01-25T00:29:02;98110;;;9.2;76.5
68489;BME280;55481;48.764;8.936;2024-01-25T00:31:33;98110;;;9.2;76.5
68489;BME280;55481;48.764;8.936;2024-01-25T00:34:10;98110;;;9.2;76.5
68489;BME280;55481;48.764;8.936;2024-01-25T00:39:07;98110;;;9.3;76.5
68489;BME280;55481;48.764;8.936;2024-01-25T00:41:37;98110;;;9.2;76.5
68489;BME280;55481;48.764;8.936;2024-01-25T00:44:07;98110;;;9.2;76.5
68489;BME280;55481;48.764;8.936;2024-01-25T00:46:38;98110;;;9.2;76.5
68489;BME280;55481;48.764;8.936;2024-01-25T00:49:09;98100;;;9.2;76.5
68489;BME280;55481;48.764;8.936;2024-01-25T00:51:44;98110;;;9.2;76.5
68489;BME280;55481;48.764;8.936;2024-01-25T00:54:13;98110;;;9.3;76
68489;BME280;55481;48.764;8.936;2024-01-25T00:56:42;98100;;;9.3;76
68489;BME280;55481;48.764;8.936;2024-01-25T00:59:13;98100;;;9.3;76
68489;BME280;55481;48.764;8.936;2024-01-25T01:01:51;98100;;;9.2;76
68489;BME280;55481;48.764;8.936;2024-01-25T01:04:21;98100;;;9.3;76
68489;BME280;55481;48.764;8.936;2024-01-25T01:06:52;98090;;;9.3;76
68489;BME280;55481;48.764;8.936;2024-01-25T01:09:17;98100;;;9.3;76
68489;BME280;55481;48.764;8.936;2024-01-25T01:11:54;98100;;;9.3;76
68489;BME280;55481;48.764;8.936;2024-01-25T01:14:25;98100;;;9.3;76
68489;BME280;55481;48.764;8.936;2024-01-25T01:16:50;98110;;;9.3;76
68489;BME280;55481;48.764;8.936;2024-01-25T01:19:21;98110;;;9.2;76
68489;BME280;55481;48.764;8.936;2024-01-25T01:21:52;98110;;;9.2;76
68489;BME280;55481;48.764;8.936;2024-01-25T01:26:46;98090;;;9.2;76
68489;BME280;55481;48.764;8.936;2024-01-25T01:29:17;98080;;;9.2;76
68489;BME280;55481;48.764;8.936;2024-01-25T01:31:48;98090;;;9.2;76
68489;BME280;55481;48.764;8.936;2024-01-25T01:34:19;98080;;;9.1;76.5
68489;BME280;55481;48.764;8.936;2024-01-25T01:41:51;98080;;;9.1;76.5
68489;BME280;55481;48.764;8.936;2024-01-25T01:44:28;98080;;;9.1;76.5
68489;BME280;55481;48.764;8.936;2024-01-25T01:49:30;98080;;;9.1;76
68489;BME280;55481;48.764;8.936;2024-01-25T01:52:01;98080;;;9.1;76
68489;BME280;55481;48.764;8.936;2024-01-25T01:54:31;98080;;;9.1;76
68489;BME280;55481;48.764;8.936;2024-01-25T01:57:03;98070;;;9;76
68489;BME280;55481;48.764;8.936;2024-01-25T01:59:33;98070;;;9;76
68489;BME280;55481;48.764;8.936;2024-01-25T02:02:04;98080;;;9;76.5
68489;BME280;55481;48.764;8.936;2024-01-25T02:04:42;98080;;;9;76.5
68489;BME280;55481;48.764;8.936;2024-01-25T02:07:13;98080;;;9;76.5
68489;BME280;55481;48.764;8.936;2024-01-25T02:14:45;98090;;;8.9;76.5
68489;BME280;55481;48.764;8.936;2024-01-25T02:17:15;98090;;;8.9;76.5
68489;BME280;55481;48.764;8.936;2024-01-25T02:22:09;98060;;;8.9;76.5
68489;BME280;55481;48.764;8.936;2024-01-25T02:24:42;98060;;;8.9;76.5
68489;BME280;55481;48.764;8.936;2024-01-25T02:27:11;98060;;;8.9;76.5
68489;BME280;55481;48.764;8.936;2024-01-25T02:29:42;98070;;;8.9;76.5
68489;BME280;55481;48.764;8.936;2024-01-25T02:34:50;98060;;;8.7;76.5
68489;BME280;55481;48.764;8.936;2024-01-25T02:39:46;98070;;;8.6;76.5
68489;BME280;55481;48.764;8.936;2024-01-25T02:42:17;98070;;;8.7;76.5
68489;BME280;55481;48.764;8.936;2024-01-25T02:47:26;98070;;;8.7;76.5
68489;BME280;55481;48.764;8.936;2024-01-25T02:50:02;98070;;;8.6;76.5
68489;BME280;55481;48.764;8.936;2024-01-25T02:54:49;98070;;;8.6;76.5
68489;BME280;55481;48.764;8.936;2024-01-25T02:57:20;98070;;;8.6;76.5
68489;BME280;55481;48.764;8.936;2024-01-25T02:59:51;98070;;;8.6;76.5
68489;BME280;55481;48.764;8.936;2024-01-25T03:05:05;98070;;;8.6;76.5
68489;BME280;55481;48.764;8.936;2024-01-25T03:07:42;98070;;;8.6;76.5
68489;BME280;55481;48.764;8.936;2024-01-25T03:09:59;98070;;;8.6;76.5
68489;BME280;55481;48.764;8.936;2024-01-25T03:12:30;98060;;;8.6;76.5
68489;BME280;55481;48.764;8.936;2024-01-25T03:15:00;98060;;;8.6;76.5
68489;BME280;55481;48.764;8.936;2024-01-25T03:19:54;98070;;;8.6;76.5
68489;BME280;55481;48.764;8.936;2024-01-25T03:22:25;98070;;;8.5;76.5
68489;BME280;55481;48.764;8.936;2024-01-25T03:24:56;98080;;;8.5;76.5
68489;BME280;55481;48.764;8.936;2024-01-25T03:27:33;98080;;;8.5;76.5
68489;BME280;55481;48.764;8.936;2024-01-25T03:32:29;98090;;;8.5;76.5
68489;BME280;55481;48.764;8.936;2024-01-25T03:35:00;98100;;;8.5;76.5
68489;BME280;55481;48.764;8.936;2024-01-25T03:37:31;98100;;;8.5;76.5
68489;BME280;55481;48.764;8.936;2024-01-25T03:42:38;98110;;;8.5;76.5
68489;BME280;55481;48.764;8.936;2024-01-25T03:45:09;98110;;;8.5;76.5
68489;BME280;55481;48.764;8.936;2024-01-25T03:47:39;98120;;;8.5;76.5
68489;BME280;55481;48.764;8.936;2024-01-25T03:52:35;98120;;;8.5;76.5
68489;BME280;55481;48.764;8.936;2024-01-25T03:55:05;98130;;;8.5;76.5
68489;BME280;55481;48.764;8.936;2024-01-25T03:57:36;98130;;;8.5;76.5
68489;BME280;55481;48.764;8.936;2024-01-25T04:00:14;98140;;;8.5;76.5
68489;BME280;55481;48.764;8.936;2024-01-25T04:02:38;98140;;;8.4;76.5
68489;BME280;55481;48.764;8.936;2024-01-25T04:05:09;98150;;;8.5;76.5
68489;BME280;55481;48.764;8.936;2024-01-25T04:10:11;98150;;;8.5;76.5
68489;BME280;55481;48.764;8.936;2024-01-25T04:12:42;98150;;;8.4;76.5
68489;BME280;55481;48.764;8.936;2024-01-25T04:15:13;98150;;;8.4;76.5
68489;BME280;55481;48.764;8.936;2024-01-25T04:20:08;98160;;;8.3;76.5
68489;BME280;55481;48.764;8.936;2024-01-25T04:22:39;98160;;;8.4;76.5
68489;BME280;55481;48.764;8.936;2024-01-25T04:25:09;98160;;;8.3;76.5
68489;BME280;55481;48.764;8.936;2024-01-25T04:27:40;98170;;;8.3;76.5
68489;BME280;55481;48.764;8.936;2024-01-25T04:30:12;98170;;;8.3;76.5
68489;BME280;55481;48.764;8.936;2024-01-25T04:32:55;98160;;;8.3;76.5
68489;BME280;55481;48.764;8.936;2024-01-25T04:35:25;98160;;;8.3;76.5
68489;BME280;55481;48.764;8.936;2024-01-25T04:37:56;98150;;;8.3;76.5
68489;BME280;55481;48.764;8.936;2024-01-25T04:40:25;98170;;;8.2;76.5
68489;BME280;55481;48.764;8.936;2024-01-25T04:42:56;98170;;;8.2;76.5
68489;BME280;55481;48.764;8.936;2024-01-25T04:45:21;98180;;;8.2;76.5
68489;BME280;55481;48.764;8.936;2024-01-25T04:53:02;98190;;;8.1;77
68489;BME280;55481;48.764;8.936;2024-01-25T04:55:25;98200;;;8.1;76.5
68489;BME280;55481;48.764;8.936;2024-01-25T04:57:56;98200;;;8.1;76.5
68489;BME280;55481;48.764;8.936;2024-01-25T05:00:27;98200;;;8.1;76.5
68489;BME280;55481;48.764;8.936;2024-01-25T05:03:04;98210;;;8.1;76.5
68489;BME280;55481;48.764;8.936;2024-01-25T05:05:36;98210;;;8.1;76.5
68489;BME280;55481;48.764;8.936;2024-01-25T05:10:50;98220;;;8;76.5
68489;BME280;55481;48.764;8.936;2024-01-25T05:13:07;98220;;;8;76.5
68489;BME280;55481;48.764;8.936;2024-01-25T05:15:37;98220;;;8;76.5
68489;BME280;55481;48.764;8.936;2024-01-25T05:20:31;98230;;;8;76.5
68489;BME280;55481;48.764;8.936;2024-01-25T05:23:02;98220;;;8;77
68489;BME280;55481;48.764;8.936;2024-01-25T05:25:32;98220;;;8;77
68489;BME280;55481;48.764;8.936;2024-01-25T05:28:06;98220;;;7.9;77
68489;BME280;55481;48.764;8.936;2024-01-25T05:35:37;98210;;;7.8;77
68489;BME280;55481;48.764;8.936;2024-01-25T05:38:08;98210;;;7.8;77
68489;BME280;55481;48.764;8.936;2024-01-25T05:40:39;98210;;;7.7;77
68489;BME280;55481;48.764;8.936;2024-01-25T05:43:16;98220;;;7.7;77
68489;BME280;55481;48.764;8.936;2024-01-25T05:45:45;98220;;;7.7;77
68489;BME280;55481;48.764;8.936;2024-01-25T05:48:16;98230;;;7.5;77
68489;BME280;55481;48.764;8.936;2024-01-25T05:50:46;98230;;;7.4;77
68489;BME280;55481;48.764;8.936;2024-01-25T05:53:10;98220;;;7.4;77
68489;BME280;55481;48.764;8.936;2024-01-25T05:55:41;98220;;;7.3;77
68489;BME280;55481;48.764;8.936;2024-01-25T05:58:19;98220;;;7.2;77
68489;BME280;55481;48.764;8.936;2024-01-25T06:00:51;98220;;;7.2;77
68489;BME280;55481;48.764;8.936;2024-01-25T06:03:14;98220;;;7.1;77
68489;BME280;55481;48.764;8.936;2024-01-25T06:05:45;98210;;;7;77
68489;BME280;55481;48.764;8.936;2024-01-25T06:08:16;98220;;;7;77.5
68489;BME280;55481;48.764;8.936;2024-01-25T06:10:43;98220;;;7;77
68489;BME280;55481;48.764;8.936;2024-01-25T06:13:10;98220;;;7;77
68489;BME280;55481;48.764;8.936;2024-01-25T06:15:42;98230;;;6.9;77
68489;BME280;55481;48.764;8.936;2024-01-25T06:18:13;98230;;;6.9;77
68489;BME280;55481;48.764;8.936;2024-01-25T06:20:43;98230;;;6.9;77
68489;BME280;55481;48.764;8.936;2024-01-25T06:28:15;98230;;;6.7;77
68489;BME280;55481;48.764;8.936;2024-01-25T06:30:46;98240;;;6.6;77
68489;BME280;55481;48.764;8.936;2024-01-25T06:33:17;98230;;;6.6;77
68489;BME280;55481;48.764;8.936;2024-01-25T06:38:25;98240;;;6.5;77
68489;BME280;55481;48.764;8.936;2024-01-25T06:40:56;98250;;;6.6;77
68489;BME280;55481;48.764;8.936;2024-01-25T06:43:26;98250;;;6.5;77
68489;BME280;55481;48.764;8.936;2024-01-25T06:45:58;98240;;;6.5;77
68489;BME280;55481;48.764;8.936;2024-01-25T06:48:28;98240;;;6.4;77
68489;BME280;55481;48.764;8.936;2024-01-25T06:55:54;98240;;;6.4;77
68489;BME280;55481;48.764;8.936;2024-01-25T06:58:25;98240;;;6.4;77
68489;BME280;55481;48.764;8.936;2024-01-25T07:00:55;98230;;;6.4;77
68489;BME280;55481;48.764;8.936;2024-01-25T07:03:27;98220;;;6.5;77
68489;BME280;55481;48.764;8.936;2024-01-25T07:05:58;98240;;;6.6;77
68489;BME280;55481;48.764;8.936;2024-01-25T07:11:05;98240;;;6.5;76.5
68489;BME280;55481;48.764;8.936;2024-01-25T07:13:36;98240;;;6.6;76.5
68489;BME280;55481;48.764;8.936;2024-01-25T07:18:31;98260;;;6.6;76.5
68489;BME280;55481;48.764;8.936;2024-01-25T07:21:02;98260;;;6.5;76.5
68489;BME280;55481;48.764;8.936;2024-01-25T07:23:33;98260;;;6.4;77
68489;BME280;55481;48.764;8.936;2024-01-25T07:26:03;98260;;;6.3;77
68489;BME280;55481;48.764;8.936;2024-01-25T07:28:34;98270;;;6.3;77
68489;BME280;55481;48.764;8.936;2024-01-25T07:31:05;98260;;;6.2;77.5
68489;BME280;55481;48.764;8.936;2024-01-25T07:33:35;98270;;;6.3;77
68489;BME280;55481;48.764;8.936;2024-01-25T07:36:07;98260;;;6.3;77
68489;BME280;55481;48.764;8.936;2024-01-25T07:38:37;98270;;;6.3;77
68489;BME280;55481;48.764;8.936;2024-01-25T07:41:08;98270;;;6.3;77
68489;BME280;55481;48.764;8.936;2024-01-25T07:43:38;98270;;;6.3;77
68489;BME280;55481;48.764;8.936;2024-01-25T07:53:42;98290;;;6.3;77
68489;BME280;55481;48.764;8.936;2024-01-25T07:56:12;98290;;;6.4;76.5
68489;BME280;55481;48.764;8.936;2024-01-25T07:58:43;98290;;;6.4;76.5
68489;BME280;55481;48.764;8.936;2024-01-25T08:03:51;98290;;;6.3;77
68489;BME280;55481;48.764;8.936;2024-01-25T08:06:22;98280;;;6.3;77
68489;BME280;55481;48.764;8.936;2024-01-25T08:08:53;98280;;;6.2;77
68489;BME280;55481;48.764;8.936;2024-01-25T08:11:24;98280;;;6.2;77.5
68489;BME280;55481;48.764;8.936;2024-01-25T08:13:54;98270;;;6.4;77
68489;BME280;55481;48.764;8.936;2024-01-25T08:16:25;98270;;;6.6;76.5
68489;BME280;55481;48.764;8.936;2024-01-25T08:18:56;98260;;;6.6;76.5
68489;BME280;55481;48.764;8.936;2024-01-25T08:21:27;98250;;;6.7;76
68489;BME280;55481;48.764;8.936;2024-01-25T08:26:30;98250;;;6.9;76
68489;BME280;55481;48.764;8.936;2024-01-25T08:29:00;98250;;;7;75.5
68489;BME280;55481;48.764;8.936;2024-01-25T08:31:31;98240;;;7;76
68489;BME280;55481;48.764;8.936;2024-01-25T08:34:02;98240;;;6.9;76
68489;BME280;55481;48.764;8.936;2024-01-25T08:36:33;98240;;;7;76
68489;BME280;55481;48.764;8.936;2024-01-25T08:39:05;98240;;;7;76
68489;BME280;55481;48.764;8.936;2024-01-25T08:41:42;98240;;;7.1;75.5
68489;BME280;55481;48.764;8.936;2024-01-25T08:46:37;98260;;;7.2;75.5
68489;BME280;55481;48.764;8.936;2024-01-25T08:49:09;98260;;;7.3;75.5
68489;BME280;55481;48.764;8.936;2024-01-25T08:51:39;98270;;;7.4;75.5
68489;BME280;55481;48.764;8.936;2024-01-25T08:54:10;98270;;;7.6;75
68489;BME280;55481;48.764;8.936;2024-01-25T08:56:41;98270;;;7.6;75
68489;BME280;55481;48.764;8.936;2024-01-25T08:59:12;98270;;;7.7;75
68489;BME280;55481;48.764;8.936;2024-01-25T09:01:36;98280;;;7.7;75
68489;BME280;55481;48.764;8.936;2024-01-25T09:04:07;98280;;;7.8;75
68489;BME280;55481;48.764;8.936;2024-01-25T09:11:39;98280;;;7.8;75.5
68489;BME280;55481;48.764;8.936;2024-01-25T09:14:10;98290;;;7.9;75.5
68489;BME280;55481;48.764;8.936;2024-01-25T09:16:40;98290;;;8;75.5
68489;BME280;55481;48.764;8.936;2024-01-25T09:21:48;98300;;;8.2;75
68489;BME280;55481;48.764;8.936;2024-01-25T09:24:19;98300;;;8.3;75
68489;BME280;55481;48.764;8.936;2024-01-25T09:29:14;98300;;;8.6;74.5
68489;BME280;55481;48.764;8.936;2024-01-25T09:39:17;98300;;;8.9;75
68489;BME280;55481;48.764;8.936;2024-01-25T09:41:48;98300;;;9;74.5
68489;BME280;55481;48.764;8.936;2024-01-25T09:44:19;98300;;;9.2;74
68489;BME280;55481;48.764;8.936;2024-01-25T09:46:50;98300;;;9.1;74.5
68489;BME280;55481;48.764;8.936;2024-01-25T09:49:27;98300;;;8.9;75
68489;BME280;55481;48.764;8.936;2024-01-25T09:51:58;98310;;;8.9;75
68489;BME280;55481;48.764;8.936;2024-01-25T09:54:33;98310;;;9;75
68489;BME280;55481;48.764;8.936;2024-01-25T09:57:01;98310;;;9.2;75
68489;BME280;55481;48.764;8.936;2024-01-25T09:59:31;98310;;;9.2;74.5
68489;BME280;55481;48.764;8.936;2024-01-25T10:06:56;98320;;;9.1;75.5
68489;BME280;55481;48.764;8.936;2024-01-25T10:09:27;98320;;;9.2;75
68489;BME280;55481;48.764;8.936;2024-01-25T10:11:58;98320;;;9.1;75.5
68489;BME280;55481;48.764;8.936;2024-01-25T10:14:43;98320;;;9;75.5
68489;BME280;55481;48.764;8.936;2024-01-25T10:17:12;98320;;;9.1;75.5
68489;BME280;55481;48.764;8.936;2024-01-25T10:19:43;98310;;;9.2;75
68489;BME280;55481;48.764;8.936;2024-01-25T10:22:06;98310;;;9.2;75
68489;BME280;55481;48.764;8.936;2024-01-25T10:24:38;98310;;;9.4;75
68489;BME280;55481;48.764;8.936;2024-01-25T10:27:09;98310;;;9.4;75
68489;BME280;55481;48.764;8.936;2024-01-25T10:29:40;98300;;;9.6;74.5
68489;BME280;55481;48.764;8.936;2024-01-25T10:32:17;98300;;;9.8;74.5
68489;BME280;55481;48.764;8.936;2024-01-25T10:34:48;98300;;;10;74
68489;BME280;55481;48.764;8.936;2024-01-25T10:39:43;98300;;;10.2;74
68489;BME280;55481;48.764;8.936;2024-01-25T10:42:14;98290;;;10;74.5
68489;BME280;55481;48.764;8.936;2024-01-25T10:44:45;98290;;;9.9;75
68489;BME280;55481;48.764;8.936;2024-01-25T10:47:16;98290;;;10.1;74.5
68489;BME280;55481;48.764;8.936;2024-01-25T10:49:47;98290;;;9.8;75
68489;BME280;55481;48.764;8.936;2024-01-25T10:52:18;98290;;;10;74.5
68489;BME280;55481;48.764;8.936;2024-01-25T10:54:49;98290;;;10;74.5
68489;BME280;55481;48.764;8.936;2024-01-25T10:57:20;98290;;;9.9;74.5
68489;BME280;55481;48.764;8.936;2024-01-25T10:59:52;98280;;;9.9;75
68489;BME280;55481;48.764;8.936;2024-01-25T11:02:28;98280;;;9.9;75
68489;BME280;55481;48.764;8.936;2024-01-25T11:07:32;98280;;;10.2;74
68489;BME280;55481;48.764;8.936;2024-01-25T11:10:02;98280;;;10.7;73
68489;BME280;55481;48.764;8.936;2024-01-25T11:14:57;98260;;;11;73
68489;BME280;55481;48.764;8.936;2024-01-25T11:17:28;98260;;;11.1;72.5
68489;BME280;55481;48.764;8.936;2024-01-25T11:20:00;98250;;;11;73
68489;BME280;55481;48.764;8.936;2024-01-25T11:22:34;98250;;;11;73
68489;BME280;55481;48.764;8.936;2024-01-25T11:25:10;98250;;;10.7;73.5
68489;BME280;55481;48.764;8.936;2024-01-25T11:27:32;98250;;;10.4;74
68489;BME280;55481;48.764;8.936;2024-01-25T11:30:09;98240;;;10;75
68489;BME280;55481;48.764;8.936;2024-01-25T11:32:34;98240;;;10;75
68489;BME280;55481;48.764;8.936;2024-01-25T11:35:05;98240;;;9.9;74.5
68489;BME280;55481;48.764;8.936;2024-01-25T11:37:43;98230;;;9.9;74.5
68489;BME280;55481;48.764;8.936;2024-01-25T11:40:14;98230;;;10;74.5
68489;BME280;55481;48.764;8.936;2024-01-25T11:42:38;98230;;;10;74.5
68489;BME280;55481;48.764;8.936;2024-01-25T11:45:10;98220;;;10.4;73.5
68489;BME280;55481;48.764;8.936;2024-01-25T11:47:40;98220;;;10.5;73
68489;BME280;55481;48.764;8.936;2024-01-25T11:50:10;98220;;;10.4;73.5
68489;BME280;55481;48.764;8.936;2024-01-25T11:52:41;98220;;;10.6;73
68489;BME280;55481;48.764;8.936;2024-01-25T11:55:18;98220;;;10.7;73
68489;BME280;55481;48.764;8.936;2024-01-25T11:57:43;98210;;;10.8;72.5
68489;BME280;55481;48.764;8.936;2024-01-25T12:00:08;98220;;;10.6;73
68489;BME280;55481;48.764;8.936;2024-01-25T12:05:09;98210;;;11;72.5
68489;BME280;55481;48.764;8.936;2024-01-25T12:07:39;98210;;;11;72
68489;BME280;55481;48.764;8.936;2024-01-25T12:10:15;98200;;;10.7;73
68489;BME280;55481;48.764;8.936;2024-01-25T12:12:41;98210;;;10.9;73
68489;BME280;55481;48.764;8.936;2024-01-25T12:15:12;98200;;;10.9;73
68489;BME280;55481;48.764;8.936;2024-01-25T12:20:19;98200;;;10.8;73
68489;BME280;55481;48.764;8.936;2024-01-25T12:22:50;98190;;;10.8;73.5
68489;BME280;55481;48.764;8.936;2024-01-25T12:25:21;98190;;;10.8;73
68489;BME280;55481;48.764;8.936;2024-01-25T12:32:48;98180;;;10.9;73
68489;BME280;55481;48.764;8.936;2024-01-25T12:35:18;98170;;;10.9;73
68489;BME280;55481;48.764;8.936;2024-01-25T12:37:48;98170;;;10.8;73
68489;BME280;55481;48.764;8.936;2024-01-25T12:42:50;98170;;;10.7;73.5
68489;BME280;55481;48.764;8.936;2024-01-25T12:50:35;98160;;;10.8;72.5
68489;BME280;55481;48.764;8.936;2024-01-25T12:53:05;98160;;;11;72.5
68489;BME280;55481;48.764;8.936;2024-01-25T12:55:35;98160;;;11.1;72.5
68489;BME280;55481;48.764;8.936;2024-01-25T12:57:59;98150;;;10.9;73
68489;BME280;55481;48.764;8.936;2024-01-25T13:00:29;98140;;;11.1;72.5
68489;BME280;55481;48.764;8.936;2024-01-25T13:03:01;98140;;;11;72.5
68489;BME280;55481;48.764;8.936;2024-01-25T13:05:39;98140;;;11.2;72.5
68489;BME280;55481;48.764;8.936;2024-01-25T13:10:46;98130;;;11.1;72.5
68489;BME280;55481;48.764;8.936;2024-01-25T13:13:10;98130;;;11;72.5
68489;BME280;55481;48.764;8.936;2024-01-25T13:15:45;98130;;;11.1;72
68489;BME280;55481;48.764;8.936;2024-01-25T13:18:11;98120;;;11;72.5
68489;BME280;55481;48.764;8.936;2024-01-25T13:20:40;98120;;;10.8;73
68489;BME280;55481;48.764;8.936;2024-01-25T13:23:11;98120;;;11;73
68489;BME280;55481;48.764;8.936;2024-01-25T13:25:41;98110;;;11.2;72.5
68489;BME280;55481;48.764;8.936;2024-01-25T13:28:11;98110;;;11.4;72
68489;BME280;55481;48.764;8.936;2024-01-25T13:30:41;98110;;;11.2;72
68489;BME280;55481;48.764;8.936;2024-01-25T13:32:59;98100;;;10.9;73
68489;BME280;55481;48.764;8.936;2024-01-25T13:35:30;98100;;;10.9;73
68489;BME280;55481;48.764;8.936;2024-01-25T13:38:01;98110;;;10.9;73
68489;BME280;55481;48.764;8.936;2024-01-25T13:40:32;98100;;;10.9;72.5
68489;BME280;55481;48.764;8.936;2024-01-25T13:43:03;98110;;;11;72.5
68489;BME280;55481;48.764;8.936;2024-01-25T13:45:34;98100;;;10.9;73
68489;BME280;55481;48.764;8.936;2024-01-25T13:48:04;98100;;;10.9;73
68489;BME280;55481;48.764;8.936;2024-01-25T13:50:41;98110;;;11;72.5
68489;BME280;55481;48.764;8.936;2024-01-25T13:53:06;98110;;;11.1;72.5
68489;BME280;55481;48.764;8.936;2024-01-25T13:58:07;98110;;;11.2;72.5
68489;BME280;55481;48.764;8.936;2024-01-25T14:00:45;98110;;;11.2;72.5
68489;BME280;55481;48.764;8.936;2024-01-25T14:03:26;98100;;;11.1;72.5
68489;BME280;55481;48.764;8.936;2024-01-25T14:05:46;98110;;;10.9;73
68489;BME280;55481;48.764;8.936;2024-01-25T14:08:17;98100;;;10.8;73
68489;BME280;55481;48.764;8.936;2024-01-25T14:10:41;98100;;;10.9;72.5
68489;BME280;55481;48.764;8.936;2024-01-25T14:20:45;98090;;;10.9;72.5
68489;BME280;55481;48.764;8.936;2024-01-25T14:23:16;98090;;;10.9;72.5
68489;BME280;55481;48.764;8.936;2024-01-25T14:25:46;98080;;;10.8;73
68489;BME280;55481;48.764;8.936;2024-01-25T14:28:17;98080;;;10.7;73
68489;BME280;55481;48.764;8.936;2024-01-25T14:30:48;98080;;;10.7;73
68489;BME280;55481;48.764;8.936;2024-01-25T14:38:20;98070;;;10.8;73
68489;BME280;55481;48.764;8.936;2024-01-25T14:41:11;98070;;;10.8;73
68489;BME280;55481;48.764;8.936;2024-01-25T14:43:48;98070;;;10.8;73
68489;BME280;55481;48.764;8.936;2024-01-25T14:46:05;98070;;;10.7;73
68489;BME280;55481;48.764;8.936;2024-01-25T14:50:58;98080;;;10.5;73.5
68489;BME280;55481;48.764;8.936;2024-01-25T14:53:29;98080;;;10.5;73.5
68489;BME280;55481;48.764;8.936;2024-01-25T14:56:00;98080;;;10.4;73.5
68489;BME280;55481;48.764;8.936;2024-01-25T14:58:31;98080;;;10.5;73
68489;BME280;55481;48.764;8.936;2024-01-25T15:01:02;98080;;;10.4;73
68489;BME280;55481;48.764;8.936;2024-01-25T15:05:58;98070;;;10.4;73
68489;BME280;55481;48.764;8.936;2024-01-25T15:08:28;98070;;;10.3;73.5
68489;BME280;55481;48.764;8.936;2024-01-25T15:10:59;98070;;;10.3;73.5
68489;BME280;55481;48.764;8.936;2024-01-25T15:13:31;98070;;;10.2;73.5
68489;BME280;55481;48.764;8.936;2024-01-25T15:16:01;98060;;;10.2;73.5
68489;BME280;55481;48.764;8.936;2024-01-25T15:18:31;98070;;;10;73.5
68489;BME280;55481;48.764;8.936;2024-01-25T15:21:02;98060;;;10.1;73.5
68489;BME280;55481;48.764;8.936;2024-01-25T15:26:03;98060;;;10;73.5
68489;BME280;55481;48.764;8.936;2024-01-25T15:31:06;98070;;;10;73.5
68489;BME280;55481;48.764;8.936;2024-01-25T15:36:07;98070;;;9.9;73.5
68489;BME280;55481;48.764;8.936;2024-01-25T15:38:37;98080;;;9.8;74
68489;BME280;55481;48.764;8.936;2024-01-25T15:41:09;98080;;;9.7;74
68489;BME280;55481;48.764;8.936;2024-01-25T15:43:39;98070;;;9.7;74
68489;BME280;55481;48.764;8.936;2024-01-25T15:48:46;98060;;;9.8;73.5
68489;BME280;55481;48.764;8.936;2024-01-25T15:51:17;98060;;;9.8;73.5
68489;BME280;55481;48.764;8.936;2024-01-25T15:53:49;98060;;;9.8;73.5
68489;BME280;55481;48.764;8.936;2024-01-25T15:56:27;98060;;;9.8;73.5
68489;BME280;55481;48.764;8.936;2024-01-25T15:58:57;98060;;;9.8;73.5
68489;BME280;55481;48.764;8.936;2024-01-25T16:01:22;98050;;;9.7;73.5
68489;BME280;55481;48.764;8.936;2024-01-25T16:03:53;98050;;;9.7;73.5
68489;BME280;55481;48.764;8.936;2024-01-25T16:06:23;98040;;;9.7;73.5
68489;BME280;55481;48.764;8.936;2024-01-25T16:08:54;98050;;;9.6;74
68489;BME280;55481;48.764;8.936;2024-01-25T16:11:19;98050;;;9.6;74
68489;BME280;55481;48.764;8.936;2024-01-25T16:13:49;98050;;;9.7;73.5
68489;BME280;55481;48.764;8.936;2024-01-25T16:16:20;98050;;;9.6;73.5
68489;BME280;55481;48.764;8.936;2024-01-25T16:18:52;98050;;;9.5;74
68489;BME280;55481;48.764;8.936;2024-01-25T16:28:54;98060;;;9.4;74
68489;BME280;55481;48.764;8.936;2024-01-25T16:31:32;98060;;;9.4;74
68489;BME280;55481;48.764;8.936;2024-01-25T16:34:03;98060;;;9.5;74
68489;BME280;55481;48.764;8.936;2024-01-25T16:36:33;98060;;;9.5;73.5
68489;BME280;55481;48.764;8.936;2024-01-25T16:39:05;98060;;;9.5;73.5
68489;BME280;55481;48.764;8.936;2024-01-25T16:44:06;98060;;;9.4;74
68489;BME280;55481;48.764;8.936;2024-01-25T16:46:36;98060;;;9.3;74
68489;BME280;55481;48.764;8.936;2024-01-25T16:49:07;98060;;;9.3;74
68489;BME280;55481;48.764;8.936;2024-01-25T16:51:38;98060;;;9.3;74
68489;BME280;55481;48.764;8.936;2024-01-25T16:54:16;98060;;;9.4;74
68489;BME280;55481;48.764;8.936;2024-01-25T16:56:46;98060;;;9.3;74
68489;BME280;55481;48.764;8.936;2024-01-25T16:59:10;98060;;;9.2;74
68489;BME280;55481;48.764;8.936;2024-01-25T17:01:40;98060;;;9.2;74
68489;BME280;55481;48.764;8.936;2024-01-25T17:04:11;98060;;;9.2;74
68489;BME280;55481;48.764;8.936;2024-01-25T17:09:07;98060;;;9.2;74
68489;BME280;55481;48.764;8.936;2024-01-25T17:11:37;98060;;;9.2;74
68489;BME280;55481;48.764;8.936;2024-01-25T17:19:10;98060;;;9.2;74
68489;BME280;55481;48.764;8.936;2024-01-25T17:21:40;98060;;;9.2;74
68489;BME280;55481;48.764;8.936;2024-01-25T17:24:11;98060;;;9.2;74
68489;BME280;55481;48.764;8.936;2024-01-25T17:26:42;98060;;;9.2;73.5
68489;BME280;55481;48.764;8.936;2024-01-25T17:29:19;98060;;;9.1;74
68489;BME280;55481;48.764;8.936;2024-01-25T17:31:50;98060;;;9;74
68489;BME280;55481;48.764;8.936;2024-01-25T17:34:21;98060;;;9;74
68489;BME280;55481;48.764;8.936;2024-01-25T17:36:59;98060;;;9.1;74
68489;BME280;55481;48.764;8.936;2024-01-25T17:39:16;98060;;;9.1;73.5
68489;BME280;55481;48.764;8.936;2024-01-25T17:47:08;98070;;;9.1;74
68489;BME280;55481;48.764;8.936;2024-01-25T17:52:02;98060;;;9.2;73.5
68489;BME280;55481;48.764;8.936;2024-01-25T17:54:33;98060;;;9.1;74
68489;BME280;55481;48.764;8.936;2024-01-25T17:57:03;98060;;;9.1;74
68489;BME280;55481;48.764;8.936;2024-01-25T17:59:33;98070;;;9.1;74
68489;BME280;55481;48.764;8.936;2024-01-25T18:02:03;98070;;;9;74
68489;BME280;55481;48.764;8.936;2024-01-25T18:04:33;98060;;;9;74